createdAt,value
2019-03-20T00:00:15.750Z,59.37
2019-03-20T00:02:44.136Z,59.19
2019-03-20T00:05:12.523Z,59.23
2019-03-20T00:07:40.906Z,59.33
2019-03-20T00:10:11.408Z,59.25
2019-03-20T00:12:39.787Z,59.29
2019-03-20T00:15:13.797Z,59.24
2019-03-20T00:17:42.169Z,59.44
2019-03-20T00:20:12.005Z,59.39
2019-03-20T00:22:42.962Z,59.56
2019-03-20T00:25:11.207Z,59.55
2019-03-20T00:27:39.582Z,59.27
2019-03-20T00:30:18.454Z,59.10
2019-03-20T00:32:47.177Z,59.16
2019-03-20T00:35:15.650Z,59.22
2019-03-20T00:37:44.037Z,59.36
2019-03-20T00:40:16.317Z,59.39
2019-03-20T00:42:44.724Z,59.43
2019-03-20T00:45:18.075Z,59.38
2019-03-20T00:47:46.455Z,59.41
2019-03-20T00:50:18.952Z,59.69
2019-03-20T00:52:47.400Z,59.67
2019-03-20T00:55:19.721Z,59.53
2019-03-20T00:57:48.377Z,59.62
2019-03-20T01:00:21.494Z,59.53
2019-03-20T01:02:50.819Z,59.67
2019-03-20T01:05:20.233Z,59.89
2019-03-20T01:07:48.690Z,60.21
2019-03-20T01:10:24.506Z,60.66
2019-03-20T01:12:53.060Z,60.86
2019-03-20T01:15:21.508Z,60.97
2019-03-20T01:17:50.037Z,60.91
2019-03-20T01:20:20.425Z,60.64
2019-03-20T01:22:49.047Z,60.61
2019-03-20T01:25:18.167Z,60.60
2019-03-20T01:27:46.726Z,60.07
2019-03-20T01:30:32.733Z,60.18
2019-03-20T01:33:02.365Z,60.08
2019-03-20T01:35:30.817Z,60.01
2019-03-20T01:37:59.285Z,60.11
2019-03-20T01:40:27.665Z,60.13
2019-03-20T01:42:56.049Z,60.27
2019-03-20T01:45:24.772Z,60.50
2019-03-20T01:47:53.211Z,60.62
2019-03-20T01:50:21.602Z,60.82
2019-03-20T01:52:49.985Z,60.98
2019-03-20T01:55:18.378Z,61.24
2019-03-20T01:57:46.759Z,61.41
2019-03-20T02:00:15.380Z,61.57
2019-03-20T02:02:43.838Z,61.66
2019-03-20T02:05:12.294Z,61.59
2019-03-20T02:07:40.673Z,61.78
2019-03-20T02:10:11.656Z,61.81
2019-03-20T02:12:40.039Z,61.88
2019-03-20T02:15:11.467Z,61.57
2019-03-20T02:17:39.862Z,61.83
2019-03-20T02:20:11.188Z,61.85
2019-03-20T02:22:39.640Z,61.98
2019-03-20T02:25:09.663Z,62.12
2019-03-20T02:27:38.045Z,62.42
2019-03-20T02:30:09.971Z,62.30
2019-03-20T02:32:38.368Z,62.62
2019-03-20T02:35:06.885Z,62.63
2019-03-20T02:37:35.267Z,62.82
2019-03-20T02:40:05.722Z,62.67
2019-03-20T02:42:34.082Z,62.60
2019-03-20T02:45:02.479Z,62.72
2019-03-20T02:47:30.865Z,62.81
2019-03-20T02:49:59.242Z,62.57
2019-03-20T02:52:27.634Z,62.54
2019-03-20T02:54:56.023Z,62.47
2019-03-20T02:57:24.466Z,62.53
2019-03-20T02:59:52.863Z,62.73
2019-03-20T03:02:21.251Z,62.57
2019-03-20T03:04:49.691Z,62.61
2019-03-20T03:07:18.025Z,62.76
2019-03-20T03:09:46.404Z,62.91
2019-03-20T03:12:14.815Z,62.91
2019-03-20T03:14:43.200Z,62.89
2019-03-20T03:17:11.595Z,62.77
2019-03-20T03:19:39.984Z,62.73
2019-03-20T03:22:08.370Z,62.64
2019-03-20T03:24:36.754Z,62.77
2019-03-20T03:27:05.156Z,62.99
2019-03-20T03:29:33.557Z,63.19
2019-03-20T03:32:01.952Z,63.24
2019-03-20T03:34:30.335Z,63.40
2019-03-20T03:36:58.731Z,63.39
2019-03-20T03:39:27.103Z,63.44
2019-03-20T03:41:55.566Z,63.17
2019-03-20T03:44:23.943Z,63.24
2019-03-20T03:46:52.365Z,63.25
2019-03-20T03:49:20.712Z,63.05
2019-03-20T03:51:49.087Z,62.94
2019-03-20T03:54:17.468Z,63.08
2019-03-20T03:56:46.122Z,63.02
2019-03-20T03:59:14.501Z,63.15
2019-03-20T04:01:42.882Z,63.37
2019-03-20T04:04:11.270Z,63.82
2019-03-20T04:06:39.823Z,63.80
2019-03-20T04:09:08.208Z,63.92
2019-03-20T04:11:36.594Z,64.00
2019-03-20T04:14:05.063Z,64.15
2019-03-20T04:16:33.454Z,64.29
2019-03-20T04:19:01.848Z,64.24
2019-03-20T04:21:30.221Z,64.25
2019-03-20T04:23:58.609Z,63.94
2019-03-20T04:26:26.994Z,63.97
2019-03-20T04:28:55.380Z,63.88
2019-03-20T04:31:23.762Z,63.84
2019-03-20T04:33:52.155Z,63.83
2019-03-20T04:36:20.542Z,63.85
2019-03-20T04:38:48.929Z,63.88
2019-03-20T04:41:17.330Z,63.80
2019-03-20T04:43:45.723Z,63.96
2019-03-20T04:46:14.106Z,64.24
2019-03-20T04:48:42.494Z,64.45
2019-03-20T04:51:10.887Z,64.43
2019-03-20T04:53:39.274Z,64.76
2019-03-20T04:56:07.654Z,64.51
2019-03-20T04:58:36.038Z,64.70
2019-03-20T05:01:04.485Z,64.63
2019-03-20T05:03:32.905Z,64.70
2019-03-20T05:06:01.292Z,64.76
2019-03-20T05:08:29.671Z,64.77
2019-03-20T05:10:58.055Z,64.82
2019-03-20T05:13:26.451Z,65.02
2019-03-20T05:15:54.835Z,65.17
2019-03-20T05:18:23.319Z,65.12
2019-03-20T05:20:51.648Z,65.21
2019-03-20T05:23:20.046Z,65.34
2019-03-20T05:25:48.427Z,65.56
2019-03-20T05:28:16.820Z,65.65
2019-03-20T05:30:45.196Z,65.85
2019-03-20T05:33:13.595Z,65.64
2019-03-20T05:35:41.988Z,65.67
2019-03-20T05:38:10.405Z,65.76
2019-03-20T05:40:38.784Z,65.65
2019-03-20T05:43:07.163Z,65.54
2019-03-20T05:45:35.545Z,65.38
2019-03-20T05:48:03.928Z,65.34
2019-03-20T05:50:32.314Z,65.27
2019-03-20T05:53:00.697Z,65.39
2019-03-20T05:55:29.082Z,65.48
2019-03-20T05:57:57.469Z,65.24
2019-03-20T06:00:27.503Z,65.21
2019-03-20T06:02:55.879Z,65.34
2019-03-20T06:05:24.285Z,65.55
2019-03-20T06:07:52.655Z,65.26
2019-03-20T06:10:21.055Z,65.13
2019-03-20T06:12:49.445Z,64.66
2019-03-20T06:15:17.839Z,64.44
2019-03-20T06:17:47.015Z,64.04
2019-03-20T06:20:15.563Z,63.89
2019-03-20T06:22:43.945Z,63.97
2019-03-20T06:25:14.441Z,63.94
2019-03-20T06:27:42.819Z,64.11
2019-03-20T06:30:18.656Z,64.11
2019-03-20T06:32:47.038Z,64.00
2019-03-20T06:35:15.559Z,64.01
2019-03-20T06:37:43.940Z,63.81
2019-03-20T06:40:14.066Z,63.77
2019-03-20T06:42:42.449Z,63.74
2019-03-20T06:45:15.850Z,63.60
2019-03-20T06:47:44.238Z,63.57
2019-03-20T06:50:16.432Z,63.44
2019-03-20T06:52:44.759Z,63.51
2019-03-20T06:55:13.290Z,63.39
2019-03-20T06:57:41.746Z,63.41
2019-03-20T07:00:44.963Z,63.29
2019-03-20T07:03:31.006Z,62.92
2019-03-20T07:06:31.186Z,62.62
2019-03-20T07:09:08.566Z,62.31
2019-03-20T07:11:39.665Z,62.06
2019-03-20T07:14:08.244Z,61.88
2019-03-20T07:16:36.467Z,61.64
2019-03-20T07:19:05.188Z,61.59
2019-03-20T07:21:33.574Z,61.08
2019-03-20T07:24:01.963Z,61.09
2019-03-20T07:26:30.346Z,61.12
2019-03-20T07:28:58.732Z,61.05
2019-03-20T07:31:27.116Z,60.46
2019-03-20T07:33:55.503Z,60.27
2019-03-20T07:36:24.261Z,59.65
2019-03-20T07:38:52.652Z,59.20
2019-03-20T07:41:21.035Z,59.07
2019-03-20T07:43:49.424Z,58.98
2019-03-20T07:46:17.822Z,58.14
2019-03-20T07:48:46.225Z,57.75
2019-03-20T07:51:14.613Z,57.39
2019-03-20T07:53:43.010Z,57.71
2019-03-20T07:56:11.464Z,57.14
2019-03-20T07:58:39.893Z,57.14
2019-03-20T08:01:08.232Z,56.75
2019-03-20T08:03:36.610Z,56.34
2019-03-20T08:06:05.231Z,56.13
2019-03-20T08:08:33.616Z,56.15
2019-03-20T08:11:01.997Z,55.97
2019-03-20T08:13:30.379Z,55.70
2019-03-20T08:15:58.773Z,54.89
2019-03-20T08:18:27.153Z,54.87
2019-03-20T08:20:55.530Z,54.59
2019-03-20T08:23:23.911Z,53.67
2019-03-20T08:25:52.289Z,53.26
2019-03-20T08:28:20.748Z,50.61
2019-03-20T08:30:49.204Z,50.56
2019-03-20T08:33:17.594Z,47.99
2019-03-20T08:35:46.394Z,47.82
2019-03-20T08:38:18.735Z,47.47
2019-03-20T08:40:44.916Z,47.84
2019-03-20T08:43:13.345Z,45.90
2019-03-20T08:45:41.759Z,46.41
2019-03-20T08:50:56.262Z,45.04
2019-03-20T08:53:24.681Z,44.07
2019-03-20T08:55:53.085Z,42.74
2019-03-20T08:58:21.607Z,42.94
2019-03-20T09:00:50.028Z,43.23
2019-03-20T09:03:18.414Z,43.48
2019-03-20T09:05:46.798Z,43.17
2019-03-20T09:08:15.173Z,42.84
2019-03-20T09:10:43.555Z,42.48
2019-03-20T09:13:11.997Z,43.11
2019-03-20T09:15:40.423Z,43.61
2019-03-20T09:18:08.834Z,40.66
2019-03-20T09:20:37.209Z,40.88
2019-03-20T09:23:05.589Z,38.19
2019-03-20T09:25:33.970Z,39.15
2019-03-20T09:28:02.352Z,40.21
2019-03-20T09:30:31.145Z,39.83
2019-03-20T09:32:59.518Z,39.33
2019-03-20T09:35:27.901Z,38.03
2019-03-20T09:37:56.295Z,38.48
2019-03-20T09:40:28.411Z,38.13
2019-03-20T09:42:56.865Z,39.03
2019-03-20T09:45:25.549Z,38.64
2019-03-20T09:47:53.940Z,38.79
2019-03-20T09:50:26.299Z,40.01
2019-03-20T09:52:54.681Z,40.27
2019-03-20T09:55:23.054Z,40.74
2019-03-20T09:57:51.438Z,39.16
2019-03-20T10:00:22.202Z,37.93
2019-03-20T10:02:50.588Z,37.93
2019-03-20T10:05:19.103Z,37.62
2019-03-20T10:07:47.585Z,38.13
2019-03-20T10:10:20.706Z,37.79
2019-03-20T10:12:49.298Z,37.44
2019-03-20T10:15:19.358Z,37.34
2019-03-20T10:17:47.887Z,37.61
2019-03-20T10:20:18.782Z,37.42
2019-03-20T10:22:47.254Z,37.21
2019-03-20T10:25:16.774Z,36.93
2019-03-20T10:27:45.319Z,37.06
2019-03-20T10:30:26.989Z,36.75
2019-03-20T10:32:55.466Z,36.66
2019-03-20T10:35:23.835Z,36.84
2019-03-20T10:37:52.248Z,37.19
2019-03-20T10:40:27.754Z,36.79
2019-03-20T10:42:56.162Z,37.27
2019-03-20T10:45:24.743Z,37.24
2019-03-20T10:47:53.546Z,37.21
2019-03-20T10:50:23.822Z,37.03
2019-03-20T10:52:52.276Z,37.08
2019-03-20T10:55:20.768Z,37.23
2019-03-20T10:57:49.265Z,38.40
2019-03-20T11:00:19.980Z,38.28
2019-03-20T11:02:48.396Z,38.39
2019-03-20T11:05:18.054Z,38.03
2019-03-20T11:07:46.472Z,37.49
2019-03-20T11:10:20.133Z,37.30
2019-03-20T11:12:48.530Z,36.73
2019-03-20T11:15:19.064Z,37.24
2019-03-20T11:17:47.584Z,36.71
2019-03-20T11:20:19.910Z,36.49
2019-03-20T11:22:48.765Z,36.92
2019-03-20T11:25:25.212Z,36.02
2019-03-20T11:27:53.654Z,36.03
2019-03-20T11:30:28.146Z,35.87
2019-03-20T11:32:56.626Z,35.87
2019-03-20T11:35:25.163Z,36.06
2019-03-20T11:37:53.727Z,36.55
2019-03-20T11:40:33.609Z,37.08
2019-03-20T11:43:01.998Z,37.77
2019-03-20T11:45:30.418Z,37.74
2019-03-20T11:47:58.836Z,36.28
2019-03-20T11:50:37.924Z,36.25
2019-03-20T11:53:07.588Z,36.44
2019-03-20T11:55:36.357Z,36.30
2019-03-20T11:58:05.907Z,35.99
2019-03-20T12:00:34.400Z,35.59
2019-03-20T12:03:02.824Z,35.23
2019-03-20T12:05:31.247Z,35.62
2019-03-20T12:07:59.706Z,35.25
2019-03-20T12:10:34.517Z,35.94
2019-03-20T12:13:02.940Z,35.90
2019-03-20T12:15:31.439Z,36.27
2019-03-20T12:17:59.860Z,35.58
2019-03-20T12:20:28.352Z,35.98
2019-03-20T12:22:56.767Z,36.21
2019-03-20T12:25:29.654Z,36.38
2019-03-20T12:27:58.140Z,35.46
2019-03-20T12:30:33.685Z,35.68
2019-03-20T12:33:02.103Z,35.70
2019-03-20T12:35:33.576Z,35.78
2019-03-20T12:38:13.309Z,35.59
2019-03-20T12:40:32.146Z,35.29
2019-03-20T12:43:00.567Z,34.66
2019-03-20T12:45:41.205Z,34.70
2019-03-20T12:48:15.633Z,34.50
2019-03-20T12:50:44.116Z,35.31
2019-03-20T12:53:15.779Z,35.76
2019-03-20T12:55:44.197Z,36.33
2019-03-20T12:58:12.610Z,36.59
2019-03-20T13:00:41.029Z,36.22
2019-03-20T13:03:09.517Z,36.32
2019-03-20T13:05:37.939Z,36.14
2019-03-20T13:08:06.557Z,36.06
2019-03-20T13:10:35.058Z,35.95
2019-03-20T13:13:05.114Z,35.89
2019-03-20T13:15:33.707Z,35.26
2019-03-20T13:18:02.188Z,35.70
2019-03-20T13:20:30.605Z,35.32
2019-03-20T13:23:02.068Z,35.35
2019-03-20T13:25:30.559Z,35.38
2019-03-20T13:27:59.027Z,35.29
2019-03-20T13:30:30.421Z,35.17
2019-03-20T13:32:58.924Z,35.50
2019-03-20T13:35:27.349Z,35.19
2019-03-20T13:37:55.804Z,35.42
2019-03-20T13:40:24.228Z,36.25
2019-03-20T13:42:52.647Z,36.54
2019-03-20T13:45:22.922Z,36.84
2019-03-20T13:47:51.348Z,36.96
2019-03-20T13:50:19.848Z,36.39
2019-03-20T13:52:48.280Z,35.29
2019-03-20T13:55:17.448Z,34.95
2019-03-20T13:57:45.866Z,35.18
2019-03-20T14:00:16.318Z,35.05
2019-03-20T14:02:44.745Z,34.70
2019-03-20T14:05:14.007Z,34.68
2019-03-20T14:07:42.509Z,34.77
2019-03-20T14:10:24.510Z,34.75
2019-03-20T14:12:46.998Z,34.67
2019-03-20T14:15:19.240Z,34.33
2019-03-20T14:17:47.728Z,34.57
2019-03-20T14:20:26.650Z,35.40
2019-03-20T14:22:55.084Z,34.79
2019-03-20T14:25:23.381Z,34.73
2019-03-20T14:27:55.442Z,34.26
2019-03-20T14:30:34.175Z,34.88
2019-03-20T14:33:02.593Z,34.90
2019-03-20T14:35:31.017Z,35.18
2019-03-20T14:37:59.477Z,35.95
2019-03-20T14:40:35.485Z,36.38
2019-03-20T14:43:00.628Z,34.39
2019-03-20T14:45:29.153Z,34.85
2019-03-20T14:47:57.570Z,34.95
2019-03-20T14:50:26.965Z,34.94
2019-03-20T14:52:55.388Z,34.98
2019-03-20T14:55:23.843Z,35.34
2019-03-20T14:57:52.386Z,35.23
2019-03-20T15:00:28.236Z,35.60
2019-03-20T15:02:56.722Z,35.56
2019-03-20T15:05:25.147Z,35.76
2019-03-20T15:07:53.836Z,36.19
2019-03-20T15:10:31.476Z,36.03
2019-03-20T15:12:59.896Z,36.23
2019-03-20T15:15:40.193Z,35.91
2019-03-20T15:18:08.705Z,36.37
2019-03-20T15:20:37.189Z,35.58
2019-03-20T15:23:05.749Z,35.66
2019-03-20T15:25:34.169Z,35.67
2019-03-20T15:28:02.588Z,34.78
2019-03-20T15:30:31.116Z,34.82
2019-03-20T15:32:59.530Z,34.84
2019-03-20T15:35:27.967Z,34.37
2019-03-20T15:37:56.392Z,35.03
2019-03-20T15:40:26.049Z,34.88
2019-03-20T15:42:54.471Z,34.98
2019-03-20T15:45:22.914Z,34.62
2019-03-20T15:47:51.411Z,34.36
2019-03-20T15:50:27.347Z,35.37
2019-03-20T15:52:55.834Z,35.60
2019-03-20T15:55:41.024Z,35.00
2019-03-20T15:58:09.510Z,35.19
2019-03-20T16:00:37.932Z,34.31
2019-03-20T16:03:09.462Z,35.16
2019-03-20T16:05:37.979Z,34.44
2019-03-20T16:08:08.586Z,34.87
2019-03-20T16:10:37.125Z,34.77
2019-03-20T16:13:05.789Z,34.42
2019-03-20T16:15:34.289Z,34.78
2019-03-20T16:18:02.708Z,34.90
2019-03-20T16:20:31.132Z,34.92
2019-03-20T16:22:59.563Z,34.92
2019-03-20T16:25:27.986Z,35.20
2019-03-20T16:27:56.482Z,34.92
2019-03-20T16:30:27.366Z,35.01
2019-03-20T16:32:56.585Z,35.01
2019-03-20T16:35:25.166Z,34.50
2019-03-20T16:37:53.602Z,35.26
2019-03-20T16:40:29.940Z,35.19
2019-03-20T16:42:58.365Z,35.11
2019-03-20T16:45:31.671Z,35.25
2019-03-20T16:48:00.256Z,35.32
2019-03-20T16:50:28.677Z,35.14
2019-03-20T16:52:57.175Z,35.06
2019-03-20T16:55:25.895Z,35.38
2019-03-20T16:57:54.310Z,35.20
2019-03-20T17:00:30.920Z,35.46
2019-03-20T17:02:59.589Z,34.93
2019-03-20T17:05:28.536Z,35.42
2019-03-20T17:07:57.125Z,35.11
2019-03-20T17:10:42.083Z,35.24
2019-03-20T17:13:10.514Z,35.67
2019-03-20T17:15:39.895Z,35.68
2019-03-20T17:18:09.060Z,35.55
2019-03-20T17:20:37.482Z,35.64
2019-03-20T17:23:07.750Z,35.37
2019-03-20T17:25:36.461Z,35.77
2019-03-20T17:28:05.508Z,35.60
2019-03-20T17:30:48.075Z,35.50
2019-03-20T17:33:16.492Z,35.61
2019-03-20T17:35:44.928Z,35.73
2019-03-20T17:38:13.347Z,35.84
2019-03-20T17:40:41.809Z,35.92
2019-03-20T17:43:10.201Z,36.13
2019-03-20T17:45:38.767Z,36.06
2019-03-20T17:48:07.265Z,36.07
2019-03-20T17:50:35.863Z,36.39
2019-03-20T17:53:05.721Z,36.28
2019-03-20T17:55:34.219Z,36.26
2019-03-20T17:58:02.704Z,36.57
2019-03-20T18:00:42.529Z,36.56
2019-03-20T18:03:11.110Z,36.93
2019-03-20T18:05:39.875Z,37.41
2019-03-20T18:08:09.031Z,37.64
2019-03-20T18:10:37.531Z,37.60
2019-03-20T18:13:07.393Z,37.94
2019-03-20T18:15:36.153Z,38.21
2019-03-20T18:18:05.432Z,39.32
2019-03-20T18:20:33.874Z,39.67
2019-03-20T18:23:02.438Z,40.06
2019-03-20T18:25:30.860Z,40.23
2019-03-20T18:27:59.282Z,40.56
2019-03-20T18:30:36.742Z,40.96
2019-03-20T18:33:05.298Z,41.11
2019-03-20T18:35:33.724Z,41.67
2019-03-20T18:38:02.147Z,41.74
2019-03-20T18:40:30.567Z,41.73
2019-03-20T18:42:58.995Z,41.88
2019-03-20T18:45:27.654Z,42.38
2019-03-20T18:47:56.138Z,42.46
2019-03-20T18:50:25.570Z,42.81
2019-03-20T18:52:54.112Z,42.86
2019-03-20T18:55:22.511Z,42.56
2019-03-20T18:57:51.060Z,42.25
2019-03-20T19:00:35.267Z,42.11
2019-03-20T19:03:12.146Z,42.16
2019-03-20T19:06:00.545Z,42.54
2019-03-20T19:08:28.998Z,42.86
2019-03-20T19:10:57.411Z,43.13
2019-03-20T19:13:25.798Z,43.36
2019-03-20T19:15:54.178Z,43.61
2019-03-20T19:18:22.565Z,43.94
2019-03-20T19:20:50.950Z,44.31
2019-03-20T19:23:19.329Z,44.68
2019-03-20T19:25:47.726Z,45.09
2019-03-20T19:28:16.122Z,45.26
2019-03-20T19:30:44.498Z,45.68
2019-03-20T19:33:12.881Z,45.89
2019-03-20T19:35:41.273Z,46.19
2019-03-20T19:38:09.753Z,46.38
2019-03-20T19:40:38.151Z,46.88
2019-03-20T19:43:06.529Z,47.33
2019-03-20T19:45:34.928Z,47.65
2019-03-20T19:48:03.317Z,48.14
2019-03-20T19:50:31.719Z,48.38
2019-03-20T19:53:00.105Z,48.71
2019-03-20T19:55:28.528Z,48.85
2019-03-20T19:57:56.921Z,49.08
2019-03-20T20:00:26.449Z,49.09
2019-03-20T20:02:54.830Z,49.14
2019-03-20T20:05:23.268Z,49.24
2019-03-20T20:07:51.729Z,49.19
2019-03-20T20:10:20.865Z,49.46
2019-03-20T20:12:49.422Z,49.64
2019-03-20T20:15:26.755Z,49.84
2019-03-20T20:17:55.135Z,49.95
2019-03-20T20:20:30.994Z,50.06
2019-03-20T20:22:59.376Z,50.11
2019-03-20T20:25:27.808Z,50.12
2019-03-20T20:27:56.277Z,50.42
2019-03-20T20:30:24.660Z,50.46
2019-03-20T20:32:53.034Z,50.64
2019-03-20T20:35:21.426Z,50.83
2019-03-20T20:37:50.560Z,50.93
2019-03-20T20:40:26.009Z,51.00
2019-03-20T20:42:54.393Z,51.19
2019-03-20T20:45:22.953Z,51.26
2019-03-20T20:47:51.426Z,51.19
2019-03-20T20:50:19.801Z,51.13
2019-03-20T20:52:48.278Z,51.22
2019-03-20T20:55:18.104Z,51.30
2019-03-20T20:57:46.533Z,51.40
2019-03-20T21:00:18.761Z,51.66
2019-03-20T21:02:47.150Z,51.89
2019-03-20T21:05:15.548Z,52.18
2019-03-20T21:07:43.934Z,52.34
2019-03-20T21:10:15.109Z,52.47
2019-03-20T21:12:55.133Z,52.52
2019-03-20T21:15:34.178Z,52.55
2019-03-20T21:18:17.442Z,52.63
2019-03-20T21:20:47.776Z,52.80
2019-03-20T21:23:37.931Z,52.71
2019-03-20T21:26:12.121Z,52.82
2019-03-20T21:29:11.840Z,52.90
2019-03-20T21:31:45.795Z,53.20
2019-03-20T21:34:22.959Z,53.31
2019-03-20T21:37:09.478Z,53.36
2019-03-20T21:39:37.879Z,53.50
2019-03-20T21:42:33.434Z,53.72
2019-03-20T21:45:16.989Z,53.73
2019-03-20T21:47:45.492Z,54.01
2019-03-20T21:50:36.636Z,54.17
2019-03-20T21:53:05.015Z,54.20
2019-03-20T21:56:09.560Z,54.36
2019-03-20T21:58:40.987Z,54.47
2019-03-20T22:01:15.509Z,54.56
2019-03-20T22:03:44.003Z,54.73
2019-03-20T22:06:42.438Z,54.88
2019-03-20T22:09:13.912Z,55.01
2019-03-20T22:12:14.029Z,55.05
2019-03-20T22:14:45.052Z,55.06
2019-03-20T22:17:32.711Z,55.32
2019-03-20T22:20:09.945Z,55.32
2019-03-20T22:22:44.126Z,55.50
2019-03-20T22:25:27.292Z,55.49
2019-03-20T22:28:24.318Z,55.77
2019-03-20T22:30:52.700Z,55.91
2019-03-20T22:33:57.225Z,56.10
2019-03-20T22:36:25.682Z,56.39
2019-03-20T22:39:02.883Z,56.57
2019-03-20T22:41:45.955Z,56.82
2019-03-20T22:44:14.339Z,56.94
2019-03-20T22:47:20.476Z,57.00
2019-03-20T22:50:00.719Z,57.05
2019-03-20T22:52:50.433Z,57.06
2019-03-20T22:55:40.865Z,56.91
2019-03-20T22:58:43.526Z,56.81
2019-03-20T23:01:20.523Z,56.80
2019-03-20T23:03:57.805Z,56.85
2019-03-20T23:06:26.354Z,56.95
2019-03-20T23:08:54.744Z,57.09
2019-03-20T23:11:23.131Z,57.32
2019-03-20T23:13:51.564Z,57.54
2019-03-20T23:16:20.986Z,57.60
2019-03-20T23:18:49.373Z,57.56
2019-03-20T23:21:17.783Z,57.61
2019-03-20T23:23:46.151Z,57.57
2019-03-20T23:26:14.543Z,57.57
2019-03-20T23:28:43.007Z,57.58
2019-03-20T23:31:11.385Z,57.31
2019-03-20T23:33:39.785Z,57.12
2019-03-20T23:36:08.177Z,57.35
2019-03-20T23:38:36.567Z,57.09
2019-03-20T23:41:05.188Z,57.34
2019-03-20T23:43:33.769Z,57.45
2019-03-20T23:46:02.493Z,57.50
2019-03-20T23:48:33.913Z,57.59
2019-03-20T23:51:08.377Z,57.95
2019-03-20T23:53:37.209Z,58.24
2019-03-20T23:56:05.665Z,58.42
2019-03-20T23:58:34.052Z,58.28
